createdAt,value
2023-11-01T00:00:19.789Z,98182.59
2023-11-01T00:02:46.379Z,98180.09
2023-11-01T00:05:12.824Z,98180.88
2023-11-01T00:07:39.371Z,98183.16
2023-11-01T00:10:06.652Z,98170.66
2023-11-01T00:12:33.563Z,98166.16
2023-11-01T00:15:00.240Z,98168.81
2023-11-01T00:17:26.761Z,98166.38
2023-11-01T00:19:53.350Z,98175.41
2023-11-01T00:22:22.222Z,98177.03
2023-11-01T00:24:48.694Z,98174.78
2023-11-01T00:27:15.093Z,98170.47
2023-11-01T00:29:42.023Z,98169.66
2023-11-01T00:32:08.609Z,98162.50
2023-11-01T00:34:35.179Z,98164.13
2023-11-01T00:37:01.726Z,98157.16
2023-11-01T00:39:28.171Z,98155.09
2023-11-01T00:41:54.782Z,98150.19
2023-11-01T00:44:21.229Z,98156.38
2023-11-01T00:46:48.486Z,98146.13
2023-11-01T00:49:14.987Z,98142.25
2023-11-01T00:51:41.736Z,98138.31
2023-11-01T00:54:08.501Z,98138.41
2023-11-01T00:56:35.137Z,98138.19
2023-11-01T00:59:01.864Z,98144.53
2023-11-01T01:01:28.434Z,98157.19
2023-11-01T01:03:55.013Z,98146.13
2023-11-01T01:06:21.838Z,98146.09
2023-11-01T01:08:48.377Z,98142.81
2023-11-01T01:11:14.976Z,98135.03
2023-11-01T01:13:41.766Z,98136.66
2023-11-01T01:16:08.474Z,98136.03
2023-11-01T01:18:34.863Z,98138.72
2023-11-01T01:21:01.435Z,98130.31
2023-11-01T01:23:28.409Z,98122.09
2023-11-01T01:25:54.833Z,98128.25
2023-11-01T01:28:21.330Z,98118.56
2023-11-01T01:30:47.768Z,98112.47
2023-11-01T01:33:14.178Z,98105.91
2023-11-01T01:35:40.710Z,98100.19
2023-11-01T01:38:07.187Z,98101.81
2023-11-01T01:40:34.009Z,98090.94
2023-11-01T01:43:10.813Z,98093.66
2023-11-01T01:45:37.364Z,98087.31
2023-11-01T01:48:04.263Z,98090.38
2023-11-01T01:50:30.866Z,98079.28
2023-11-01T01:52:58.444Z,98075.56
2023-11-01T01:55:24.865Z,98069.63
2023-11-01T01:57:51.421Z,98075.56
2023-11-01T02:00:19.059Z,98066.94
2023-11-01T02:02:46.184Z,98061.63
2023-11-01T02:05:12.786Z,98056.06
2023-11-01T02:07:39.311Z,98053.81
2023-11-01T02:10:06.408Z,98052.97
2023-11-01T02:12:33.156Z,98052.97
2023-11-01T02:14:59.669Z,98043.78
2023-11-01T02:17:26.175Z,98038.06
2023-11-01T02:19:52.638Z,98034.97
2023-11-01T02:22:19.384Z,98027.19
2023-11-01T02:24:47.894Z,98022.88
2023-11-01T02:27:14.275Z,98027.19
2023-11-01T02:29:41.057Z,98031.66
2023-11-01T02:32:08.867Z,98027.78
2023-11-01T02:34:35.712Z,98031.06
2023-11-01T02:37:02.172Z,98031.25
2023-11-01T02:39:28.921Z,98038.06
2023-11-01T02:41:55.502Z,98037.41
2023-11-01T02:44:22.519Z,98043.13
2023-11-01T02:46:48.962Z,98036.97
2023-11-01T02:49:15.525Z,98037.59
2023-11-01T02:51:42.049Z,98037.78
2023-11-01T02:54:08.597Z,98047.16
2023-11-01T02:56:35.058Z,98046.31
2023-11-01T02:59:04.960Z,98038.97
2023-11-01T03:01:31.417Z,98036.75
2023-11-01T03:03:58.030Z,98027.53
2023-11-01T03:06:24.588Z,98025.03
2023-11-01T03:08:51.180Z,98023.78
2023-11-01T03:11:18.146Z,98023.00
2023-11-01T03:13:44.603Z,98025.66
2023-11-01T03:16:13.499Z,98018.09
2023-11-01T03:18:42.009Z,98024.22
2023-11-01T03:21:08.462Z,98020.59
2023-11-01T03:23:34.963Z,98012.94
2023-11-01T03:26:02.403Z,98020.91
2023-11-01T03:28:28.958Z,98021.50
2023-11-01T03:30:55.403Z,98019.25
2023-11-01T03:33:24.310Z,98013.53
2023-11-01T03:35:50.997Z,98011.25
2023-11-01T03:38:17.431Z,98014.75
2023-11-01T03:40:43.863Z,98009.63
2023-11-01T03:43:10.342Z,98002.25
2023-11-01T03:45:37.826Z,98006.13
2023-11-01T03:48:04.651Z,98006.38
2023-11-01T03:50:31.264Z,98004.53
2023-11-01T03:52:57.720Z,98012.31
2023-11-01T03:55:24.200Z,98008.59
2023-11-01T03:57:52.683Z,98004.50
2023-11-01T04:00:19.194Z,98005.03
2023-11-01T04:02:45.863Z,97999.13
2023-11-01T04:05:12.596Z,97988.13
2023-11-01T04:07:39.375Z,97997.13
2023-11-01T04:10:06.246Z,97991.56
2023-11-01T04:12:32.587Z,97987.69
2023-11-01T04:14:58.965Z,97991.13
2023-11-01T04:17:25.465Z,97992.75
2023-11-01T04:19:51.874Z,97989.25
2023-11-01T04:22:18.415Z,97992.47
2023-11-01T04:24:52.461Z,97994.91
2023-11-01T04:27:18.987Z,97986.31
2023-11-01T04:29:45.466Z,97990.59
2023-11-01T04:32:11.902Z,97984.44
2023-11-01T04:34:38.315Z,97989.91
2023-11-01T04:37:05.452Z,97980.06
2023-11-01T04:39:34.330Z,97980.66
2023-11-01T04:42:03.092Z,97978.84
2023-11-01T04:44:29.700Z,97976.78
2023-11-01T04:46:56.331Z,97980.63
2023-11-01T04:49:22.956Z,97964.50
2023-11-01T04:51:52.154Z,97970.56
2023-11-01T04:54:18.843Z,97963.63
2023-11-01T04:56:45.272Z,97957.09
2023-11-01T04:59:11.668Z,97951.72
2023-11-01T05:01:38.155Z,97949.31
2023-11-01T05:04:05.135Z,97946.81
2023-11-01T05:06:31.624Z,97943.53
2023-11-01T05:08:58.240Z,97932.03
2023-11-01T05:11:24.707Z,97932.44
2023-11-01T05:13:51.239Z,97931.78
2023-11-01T05:16:17.893Z,97937.34
2023-11-01T05:18:47.602Z,97930.22
2023-11-01T05:21:14.332Z,97924.66
2023-11-01T05:23:40.812Z,97928.13
2023-11-01T05:26:07.604Z,97924.09
2023-11-01T05:28:34.008Z,97914.41
2023-11-01T05:31:01.105Z,97923.16
2023-11-01T05:33:27.653Z,97919.28
2023-11-01T05:35:55.426Z,97918.22
2023-11-01T05:38:22.477Z,97912.16
2023-11-01T05:40:48.839Z,97918.47
2023-11-01T05:43:15.546Z,97920.16
2023-11-01T05:45:42.237Z,97917.28
2023-11-01T05:48:09.755Z,97908.31
2023-11-01T05:50:36.842Z,97919.63
2023-11-01T05:53:04.360Z,97918.38
2023-11-01T05:55:42.242Z,97918.75
2023-11-01T05:58:15.564Z,97916.28
2023-11-01T06:00:42.285Z,97925.88
2023-11-01T06:03:08.871Z,97919.56
2023-11-01T06:05:38.697Z,97921.69
2023-11-01T06:08:05.934Z,97921.03
2023-11-01T06:10:32.808Z,97918.56
2023-11-01T06:12:59.810Z,97920.19
2023-11-01T06:15:26.241Z,97926.00
2023-11-01T06:17:52.768Z,97917.03
2023-11-01T06:20:19.390Z,97922.28
2023-11-01T06:22:46.341Z,97916.28
2023-11-01T06:25:16.058Z,97908.50
2023-11-01T06:27:42.511Z,97919.50
2023-11-01T06:30:09.605Z,97917.41
2023-11-01T06:32:36.327Z,97919.19
2023-11-01T06:35:03.134Z,97927.63
2023-11-01T06:37:29.910Z,97925.06
2023-11-01T06:39:57.851Z,97929.91
2023-11-01T06:42:24.622Z,97929.09
2023-11-01T06:44:51.428Z,97927.06
2023-11-01T06:47:18.452Z,97928.38
2023-11-01T06:49:45.297Z,97929.66
2023-11-01T06:52:12.275Z,97927.28
2023-11-01T06:54:41.826Z,97928.59
2023-11-01T06:57:08.549Z,97927.44
2023-11-01T06:59:35.078Z,97937.41
2023-11-01T07:02:01.528Z,97939.28
2023-11-01T07:04:28.024Z,97944.59
2023-11-01T07:06:54.595Z,97939.69
2023-11-01T07:09:21.359Z,97940.84
2023-11-01T07:11:48.163Z,97940.88
2023-11-01T07:14:14.914Z,97950.06
2023-11-01T07:16:41.634Z,97952.72
2023-11-01T07:19:08.487Z,97960.69
2023-11-01T07:21:35.065Z,97959.28
2023-11-01T07:24:02.869Z,97961.00
2023-11-01T07:26:29.390Z,97954.16
2023-11-01T07:28:55.818Z,97962.94
2023-11-01T07:31:22.741Z,97971.94
2023-11-01T07:33:49.662Z,97991.03
2023-11-01T07:36:16.367Z,98001.28
2023-11-01T07:38:44.233Z,98006.59
2023-11-01T07:41:11.953Z,98020.09
2023-11-01T07:43:41.624Z,98027.53
2023-11-01T07:46:09.206Z,98040.88
2023-11-01T07:48:36.625Z,98046.84
2023-11-01T07:51:07.513Z,98065.72
2023-11-01T07:53:34.556Z,98093.59
2023-11-01T07:56:01.973Z,98120.44
2023-11-01T07:58:28.402Z,98139.13
2023-11-01T08:00:54.896Z,98152.91
2023-11-01T08:03:21.826Z,98177.25
2023-11-01T08:05:48.561Z,98203.38
2023-11-01T08:08:15.096Z,98239.06
2023-11-01T08:10:41.909Z,98278.81
2023-11-01T08:13:10.285Z,98314.09
2023-11-01T08:15:37.712Z,98332.16
2023-11-01T08:18:04.343Z,98368.16
2023-11-01T08:20:31.169Z,98407.34
2023-11-01T08:22:58.275Z,98449.06
2023-11-01T08:25:27.866Z,98489.34
2023-11-01T08:27:54.233Z,98517.25
2023-11-01T08:30:21.064Z,98534.72
2023-11-01T08:32:47.817Z,98528.31
2023-11-01T08:35:14.746Z,98536.63
2023-11-01T08:37:41.551Z,98550.19
2023-11-01T08:40:08.791Z,98557.22
2023-11-01T08:42:36.417Z,98569.19
2023-11-01T08:45:03.333Z,98580.28
2023-11-01T08:47:40.673Z,98591.81
2023-11-01T08:50:08.925Z,98612.38
2023-11-01T08:52:35.530Z,98617.50
2023-11-01T08:55:03.882Z,98652.47
2023-11-01T08:57:30.718Z,98785.25
2023-11-01T08:59:57.144Z,98764.25
2023-11-01T09:02:23.748Z,98716.06
2023-11-01T09:04:50.534Z,98667.44
2023-11-01T09:07:17.095Z,98653.81
2023-11-01T09:09:43.887Z,98581.59
2023-11-01T09:12:10.647Z,98544.00
2023-11-01T09:14:38.277Z,98514.22
2023-11-01T09:17:05.155Z,98490.66
2023-11-01T09:19:32.255Z,98475.50
2023-11-01T09:21:58.996Z,98444.31
2023-11-01T09:24:26.941Z,98431.03
2023-11-01T09:26:53.782Z,98326.97
2023-11-01T09:29:20.359Z,98241.84
2023-11-01T09:31:47.133Z,98246.06
2023-11-01T09:34:13.723Z,98221.91
2023-11-01T09:36:40.982Z,98213.34
2023-11-01T09:39:08.053Z,98206.91
2023-11-01T09:41:45.808Z,98175.31
2023-11-01T09:44:16.937Z,98138.97
2023-11-01T09:46:44.534Z,98092.06
2023-11-01T09:49:12.589Z,98055.66
2023-11-01T09:51:39.285Z,98036.19
2023-11-01T09:54:06.319Z,98036.66
2023-11-01T09:56:34.158Z,98047.84
2023-11-01T09:59:04.017Z,98048.59
2023-11-01T10:01:30.723Z,98039.28
2023-11-01T10:03:58.330Z,98088.84
2023-11-01T10:06:27.690Z,98054.78
2023-11-01T10:08:54.759Z,98036.59
2023-11-01T10:11:23.650Z,98007.88
2023-11-01T10:13:51.006Z,97991.84
2023-11-01T10:16:17.734Z,97982.47
2023-11-01T10:18:44.482Z,97979.22
2023-11-01T10:21:11.519Z,97951.22
2023-11-01T10:23:41.508Z,97934.94
2023-11-01T10:26:08.265Z,97927.94
2023-11-01T10:28:43.000Z,97908.19
2023-11-01T10:31:13.204Z,97895.69
2023-11-01T10:33:40.388Z,97902.72
2023-11-01T10:36:07.310Z,97901.34
2023-11-01T10:38:35.304Z,97916.72
2023-11-01T10:41:03.079Z,97898.41
2023-11-01T10:43:33.414Z,97895.00
2023-11-01T10:46:02.452Z,97888.69
2023-11-01T10:48:30.296Z,97877.34
2023-11-01T10:50:58.701Z,97877.25
2023-11-01T10:53:26.008Z,97875.78
2023-11-01T10:55:53.851Z,97884.50
2023-11-01T10:58:25.186Z,97871.63
2023-11-01T11:01:21.856Z,97844.09
2023-11-01T11:03:56.965Z,97849.25
2023-11-01T11:06:34.231Z,97841.06
2023-11-01T11:09:20.286Z,97822.50
2023-11-01T11:12:16.778Z,97821.19
2023-11-01T11:14:48.162Z,97814.66
2023-11-01T11:17:16.913Z,97801.34
2023-11-01T11:20:12.708Z,97788.28
2023-11-01T11:22:58.298Z,97791.94
2023-11-01T11:25:39.961Z,97784.91
2023-11-01T11:28:07.241Z,97786.03
2023-11-01T11:30:46.871Z,97782.84
2023-11-01T11:33:14.274Z,97783.84
2023-11-01T11:35:41.282Z,97784.22
2023-11-01T11:38:33.692Z,97771.94
2023-11-01T11:41:26.080Z,97771.16
2023-11-01T11:44:15.230Z,97770.13
2023-11-01T11:46:50.179Z,97755.66
2023-11-01T11:49:29.103Z,97760.56
2023-11-01T11:51:56.904Z,97756.59
2023-11-01T11:54:26.064Z,97767.50
2023-11-01T11:56:57.613Z,97760.94
2023-11-01T11:59:28.515Z,97763.75
2023-11-01T12:01:57.500Z,97760.13
2023-11-01T12:04:33.238Z,97750.84
2023-11-01T12:07:00.097Z,97747.88
2023-11-01T12:09:27.756Z,97743.72
2023-11-01T12:11:56.309Z,97738.81
2023-11-01T12:14:28.265Z,97727.53
2023-11-01T12:16:56.558Z,97730.78
2023-11-01T12:19:25.298Z,97721.63
2023-11-01T12:21:56.826Z,97722.44
2023-11-01T12:24:27.773Z,97720.25
2023-11-01T12:27:04.899Z,97714.31
2023-11-01T12:29:40.455Z,97711.88
2023-11-01T12:32:15.239Z,97710.00
2023-11-01T12:34:50.677Z,97705.94
2023-11-01T12:37:24.688Z,97690.28
2023-11-01T12:40:17.627Z,97684.34
2023-11-01T12:42:50.735Z,97691.88
2023-11-01T12:45:19.343Z,97686.91
2023-11-01T12:47:50.064Z,97689.22
2023-11-01T12:50:25.487Z,97686.16
2023-11-01T12:52:53.208Z,97688.81
2023-11-01T12:55:23.552Z,97671.03
2023-11-01T12:57:54.368Z,97675.09
2023-11-01T13:00:23.162Z,97670.00
2023-11-01T13:02:50.345Z,97665.16
2023-11-01T13:05:18.347Z,97668.91
2023-11-01T13:07:45.148Z,97656.00
2023-11-01T13:10:12.180Z,97649.56
2023-11-01T13:12:41.224Z,97640.94
2023-11-01T13:15:08.992Z,97638.75
2023-11-01T13:17:35.764Z,97633.84
2023-11-01T13:20:02.411Z,97632.69
2023-11-01T13:22:28.917Z,97638.38
2023-11-01T13:24:55.363Z,97641.88
2023-11-01T13:27:21.982Z,97643.53
2023-11-01T13:29:48.573Z,97634.31
2023-11-01T13:32:16.651Z,97629.59
2023-11-01T13:34:46.171Z,97633.81
2023-11-01T13:37:12.728Z,97636.19
2023-11-01T13:39:39.461Z,97639.72
2023-11-01T13:42:08.489Z,97635.59
2023-11-01T13:44:35.401Z,97626.09
2023-11-01T13:47:02.070Z,97636.28
2023-11-01T13:49:28.456Z,97631.25
2023-11-01T13:51:54.929Z,97630.69
2023-11-01T13:54:24.474Z,97629.53
2023-11-01T13:56:50.988Z,97614.16
2023-11-01T13:59:17.505Z,97616.53
2023-11-01T14:01:44.159Z,97616.59
2023-11-01T14:04:10.808Z,97602.66
2023-11-01T14:06:37.477Z,97609.03
2023-11-01T14:09:04.387Z,97612.41
2023-11-01T14:11:31.061Z,97610.44
2023-11-01T14:13:57.574Z,97601.00
2023-11-01T14:16:24.173Z,97597.97
2023-11-01T14:18:50.891Z,97596.84
2023-11-01T14:21:17.350Z,97597.84
2023-11-01T14:23:43.953Z,97595.81
2023-11-01T14:26:10.718Z,97599.34
2023-11-01T14:28:37.544Z,97593.97
2023-11-01T14:31:04.521Z,97601.69
2023-11-01T14:33:31.461Z,97600.09
2023-11-01T14:35:58.462Z,97593.59
2023-11-01T14:38:25.213Z,97590.91
2023-11-01T14:40:52.121Z,97595.41
2023-11-01T14:43:18.929Z,97590.53
2023-11-01T14:45:45.898Z,97592.13
2023-11-01T14:48:12.506Z,97592.13
2023-11-01T14:50:39.899Z,97590.47
2023-11-01T14:53:06.718Z,97592.06
2023-11-01T14:55:33.432Z,97593.84
2023-11-01T14:58:00.964Z,97588.66
2023-11-01T15:00:27.490Z,97588.91
2023-11-01T15:02:54.256Z,97601.72
2023-11-01T15:05:21.051Z,97600.25
2023-11-01T15:07:47.826Z,97601.56
2023-11-01T15:10:14.619Z,97598.06
2023-11-01T15:12:41.220Z,97610.56
2023-11-01T15:15:08.361Z,97600.91
2023-11-01T15:17:35.231Z,97602.72
2023-11-01T15:20:02.141Z,97607.41
2023-11-01T15:22:28.685Z,97620.22
2023-11-01T15:24:55.249Z,97623.31
2023-11-01T15:27:22.262Z,97616.31
2023-11-01T15:29:49.202Z,97630.19
2023-11-01T15:32:16.039Z,97625.84
2023-11-01T15:34:43.571Z,97620.97
2023-11-01T15:37:10.387Z,97615.69
2023-11-01T15:39:38.803Z,97601.28
2023-11-01T15:42:07.514Z,97603.00
2023-11-01T15:44:34.183Z,97622.41
2023-11-01T15:47:01.233Z,97638.38
2023-11-01T15:49:28.128Z,97642.59
2023-11-01T15:51:54.794Z,97646.06
2023-11-01T15:54:23.862Z,97634.03
2023-11-01T15:56:51.583Z,97651.84
2023-11-01T15:59:19.190Z,97718.00
2023-11-01T16:01:51.673Z,97680.44
2023-11-01T16:04:18.727Z,97677.25
2023-11-01T16:06:47.070Z,97706.91
2023-11-01T16:09:14.417Z,97705.25
2023-11-01T16:11:42.530Z,97634.72
2023-11-01T16:14:10.179Z,97639.28
2023-11-01T16:16:36.783Z,97706.31
2023-11-01T16:19:03.931Z,97781.38
2023-11-01T16:21:30.556Z,97819.81
2023-11-01T16:23:59.353Z,97895.66
2023-11-01T16:26:28.538Z,97935.94
2023-11-01T16:28:56.087Z,97973.75
2023-11-01T16:31:23.221Z,98008.16
2023-11-01T16:33:49.737Z,98029.75
2023-11-01T16:36:16.664Z,98070.22
2023-11-01T16:38:43.399Z,98082.44
2023-11-01T16:41:09.980Z,98118.06
2023-11-01T16:43:39.863Z,98112.34
2023-11-01T16:46:07.606Z,98149.41
2023-11-01T16:48:34.245Z,98148.81
2023-11-01T16:51:00.836Z,98161.84
2023-11-01T16:53:28.041Z,98179.78
2023-11-01T16:55:54.850Z,98192.97
2023-11-01T16:58:23.624Z,98208.41
2023-11-01T17:00:50.064Z,98205.56
2023-11-01T17:03:16.666Z,98196.59
2023-11-01T17:05:45.875Z,98185.28
2023-11-01T17:08:12.665Z,98184.22
2023-11-01T17:10:39.127Z,98177.88
2023-11-01T17:13:05.571Z,98167.38
2023-11-01T17:15:32.139Z,98161.44
2023-11-01T17:17:58.675Z,98156.91
2023-11-01T17:20:26.956Z,97979.56
2023-11-01T17:22:56.796Z,97958.50
2023-11-01T17:25:32.342Z,97968.75
2023-11-01T17:27:59.800Z,97919.78
2023-11-01T17:30:28.064Z,97872.66
2023-11-01T17:32:57.268Z,97883.13
2023-11-01T17:35:23.928Z,97895.34
2023-11-01T17:37:51.504Z,97929.75
2023-11-01T17:40:18.207Z,97879.72
2023-11-01T17:42:45.033Z,97887.41
2023-11-01T17:45:14.016Z,97859.84
2023-11-01T17:47:44.511Z,97837.38
2023-11-01T17:50:11.106Z,97838.19
2023-11-01T17:52:41.609Z,97789.13
2023-11-01T17:55:10.504Z,97821.94
2023-11-01T17:57:38.621Z,97854.13
2023-11-01T18:00:06.416Z,97881.19
2023-11-01T18:02:33.156Z,97809.56
2023-11-01T18:05:04.361Z,97754.69
2023-11-01T18:07:30.801Z,97802.75
2023-11-01T18:10:01.290Z,97778.75
2023-11-01T18:12:30.718Z,97755.28
2023-11-01T18:14:57.676Z,97736.53
2023-11-01T18:17:24.132Z,97738.63
2023-11-01T18:19:51.032Z,97796.34
2023-11-01T18:22:41.719Z,97807.50
2023-11-01T18:25:26.925Z,97792.50
2023-11-01T18:27:53.949Z,97797.84
2023-11-01T18:30:21.297Z,97822.84
2023-11-01T18:32:47.740Z,97810.16
2023-11-01T18:35:14.540Z,97843.44
2023-11-01T18:37:40.992Z,97757.03
2023-11-01T18:40:09.574Z,97767.59
2023-11-01T18:42:48.052Z,97730.97
2023-11-01T18:45:15.154Z,97764.13
2023-11-01T18:47:41.788Z,97803.19
2023-11-01T18:50:13.361Z,97757.13
2023-11-01T18:52:40.396Z,97749.72
2023-11-01T18:55:10.037Z,97740.50
2023-11-01T18:57:36.567Z,97672.75
2023-11-01T19:00:07.917Z,97629.91
2023-11-01T19:02:35.136Z,97620.25
2023-11-01T19:05:05.198Z,97608.75
2023-11-01T19:07:34.427Z,97606.19
2023-11-01T19:10:01.670Z,97605.94
2023-11-01T19:12:36.753Z,97612.13
2023-11-01T19:15:07.323Z,97599.00
2023-11-01T19:17:34.238Z,97598.88
2023-11-01T19:20:00.681Z,97602.50
2023-11-01T19:22:27.168Z,97602.53
2023-11-01T19:24:54.070Z,97594.94
2023-11-01T19:27:24.049Z,97598.47
2023-11-01T19:29:53.961Z,97591.59
2023-11-01T19:32:20.534Z,97585.09
2023-11-01T19:34:47.209Z,97587.16
2023-11-01T19:37:14.252Z,97582.66
2023-11-01T19:39:43.385Z,97582.78
2023-11-01T19:42:11.468Z,97597.41
2023-11-01T19:44:39.300Z,97581.06
2023-11-01T19:47:06.278Z,97578.09
2023-11-01T19:49:32.876Z,97586.16
2023-11-01T19:51:59.518Z,97600.97
2023-11-01T19:54:26.236Z,97597.72
2023-11-01T19:56:55.156Z,97585.25
2023-11-01T19:59:22.164Z,97581.31
2023-11-01T20:01:49.023Z,97578.53
2023-11-01T20:04:15.941Z,97585.06
2023-11-01T20:06:42.589Z,97568.75
2023-11-01T20:09:09.404Z,97573.91
2023-11-01T20:11:35.850Z,97574.38
2023-11-01T20:14:04.930Z,97574.38
2023-11-01T20:16:31.527Z,97586.50
2023-11-01T20:19:00.207Z,97580.19
2023-11-01T20:21:27.095Z,97596.63
2023-11-01T20:23:53.550Z,97609.88
2023-11-01T20:26:20.439Z,97625.78
2023-11-01T20:28:47.647Z,97603.72
2023-11-01T20:31:14.376Z,97614.38
2023-11-01T20:33:40.928Z,97647.59
2023-11-01T20:36:07.905Z,97644.59
2023-11-01T20:38:34.452Z,97678.69
2023-11-01T20:41:00.895Z,97695.41
2023-11-01T20:43:31.338Z,97715.13
2023-11-01T20:45:57.894Z,97732.47
2023-11-01T20:48:24.565Z,97715.84
2023-11-01T20:50:51.230Z,97714.34
2023-11-01T20:53:17.985Z,97731.38
2023-11-01T20:55:45.542Z,97740.78
2023-11-01T20:58:12.657Z,97785.03
2023-11-01T21:00:39.148Z,97810.00
2023-11-01T21:03:07.082Z,97807.38
2023-11-01T21:05:33.544Z,97809.59
2023-11-01T21:08:02.279Z,97818.09
2023-11-01T21:10:31.553Z,97826.53
2023-11-01T21:12:58.884Z,97847.75
2023-11-01T21:15:25.353Z,97819.97
2023-11-01T21:17:52.873Z,97843.66
2023-11-01T21:20:19.520Z,97838.00
2023-11-01T21:22:46.441Z,97889.63
2023-11-01T21:25:12.903Z,97937.72
2023-11-01T21:27:39.469Z,97932.53
2023-11-01T21:30:07.812Z,97961.94
2023-11-01T21:32:34.450Z,98001.16
2023-11-01T21:35:01.702Z,98004.63
2023-11-01T21:37:28.310Z,97991.28
2023-11-01T21:39:54.877Z,98008.53
2023-11-01T21:42:23.755Z,98032.09
2023-11-01T21:44:50.609Z,98048.69
2023-11-01T21:47:24.357Z,98069.09
2023-11-01T21:49:50.816Z,98083.69
2023-11-01T21:52:22.406Z,98075.47
2023-11-01T21:54:51.193Z,98081.00
2023-11-01T21:57:24.246Z,98117.00
2023-11-01T21:59:50.725Z,98130.28
2023-11-01T22:02:35.751Z,98117.81
2023-11-01T22:05:04.924Z,98126.00
2023-11-01T22:07:31.520Z,98130.25
2023-11-01T22:10:05.429Z,98136.56
2023-11-01T22:12:34.720Z,98137.75
2023-11-01T22:15:02.200Z,98145.69
2023-11-01T22:17:37.516Z,98161.88
2023-11-01T22:20:07.753Z,98176.09
2023-11-01T22:22:34.529Z,98171.03
2023-11-01T22:25:01.282Z,98198.50
2023-11-01T22:27:43.815Z,98216.13
2023-11-01T22:30:12.652Z,98221.50
2023-11-01T22:32:39.444Z,98233.31
2023-11-01T22:35:08.568Z,98258.78
2023-11-01T22:37:35.971Z,98277.34
2023-11-01T22:40:06.631Z,98288.09
2023-11-01T22:42:35.979Z,98311.13
2023-11-01T22:45:03.437Z,98330.66
2023-11-01T22:47:30.576Z,98348.06
2023-11-01T22:49:57.121Z,98361.19
2023-11-01T22:52:24.850Z,98379.53
2023-11-01T22:54:51.636Z,98388.22
2023-11-01T22:57:18.599Z,98378.50
2023-11-01T22:59:45.210Z,98375.25
2023-11-01T23:02:16.335Z,98395.66
2023-11-01T23:04:43.987Z,98412.63
2023-11-01T23:07:11.092Z,98403.28
2023-11-01T23:09:37.690Z,98398.50
2023-11-01T23:12:04.877Z,98391.63
2023-11-01T23:14:31.767Z,98398.41
2023-11-01T23:16:58.210Z,98408.88
2023-11-01T23:19:24.807Z,98387.63
2023-11-01T23:21:51.511Z,98385.16
2023-11-01T23:24:19.959Z,98392.56
2023-11-01T23:26:53.495Z,98392.75
2023-11-01T23:29:31.319Z,98406.03
2023-11-01T23:32:04.034Z,98396.59
2023-11-01T23:34:42.661Z,98388.19
2023-11-01T23:37:21.277Z,98388.72
2023-11-01T23:39:50.809Z,98394.22
2023-11-01T23:42:18.789Z,98401.81
2023-11-01T23:44:46.231Z,98407.88
2023-11-01T23:47:51.983Z,98421.56
2023-11-01T23:50:31.894Z,98436.22
2023-11-01T23:53:06.776Z,98441.06
2023-11-01T23:55:33.852Z,98443.88
2023-11-01T23:58:01.464Z,98438.94
